Cherrytown, New York
Current Conditions -  °F | °C
As of 5:54 AM on Monday 20 Oct 2014 (Local Time) from KMGJ Reporting Station
Clear Clear  
Wind Chill: 29°   Ceiling: Unl
Heat Index: 34°   Visibility: 10mi
Dew Point: 29°   Wind: 6mph
Humidity: 82%   Direction: 220°SW
Pressure: 30.07"   Gusts: NA
Location:  41.7943°N, 74.3146°W
Report Text: KMGJ 200954Z AUTO 22005KT 10SM CLR 01/M02 A3007 RMK AO2 SLP184 T00111017 TSNO
Loading
Personal Weather Stations






























Interactive Weather Map
Tropical Storm Tracking
New forecast layout! Learn more

10-Day Weather Forecast

Advertisements
Track Severe Weather on mobile